Time;durP1;ratioP1;P1;durP2;ratioP2;P2;SDS_P1;SDS_P2;PMS_P1;PMS_P2;Temp;Humidity;BMP_temperature;BMP_pressure;BME280_temperature;BME280_humidity;BME280_pressure;Samples;Min_cycle;Max_cycle;Signal;HPM_P1;HPM_P2
2021/12/26 06:26:40;;;;;;;;;;;;;;;4.22;100.00;97466.59;4919853;23;19976;-65
2021/12/26 06:29:20;;;;;;;;;;;;;;;4.18;100.00;97468.53;4900189;29;19959;-66
2021/12/26 06:32:06;;;;;;;;;;;;;;;4.17;100.00;97466.94;4916598;29;19951;-67
2021/12/26 06:34:52;;;;;;;;;;;;;;;4.22;100.00;97469.38;4917507;29;19954;-66
2021/12/26 06:37:38;;;;;;;;;;;;;;;4.19;100.00;97472.88;4915974;29;19957;-66
2021/12/26 06:40:24;;;;;;;;;;;;;;;4.14;100.00;97476.00;4909710;29;19975;-66
2021/12/26 06:43:11;;;;;;;;;;;;;;;4.16;100.00;97476.41;4917779;29;19957;-66
2021/12/26 06:46:17;;;;;;;;;;;;;;;4.12;100.00;97481.09;4841204;29;20031;-66
2021/12/26 06:49:15;;;;;;;;;;;;;;;4.08;100.00;97485.81;4808893;29;19960;-66
2021/12/26 06:51:44;;;;;;;;;;;;;;;4.08;100.00;97488.56;4874656;29;19952;-68
2021/12/26 06:54:12;;;;;;;;;;;;;;;4.07;100.00;97491.69;4908465;29;19973;-68
2021/12/26 06:56:39;;;;;;;;;;;;;;;4.03;100.00;97493.63;4916730;29;20708;-67
2021/12/26 06:59:07;;;;;;;;;;;;;;;4.04;100.00;97498.78;4897024;29;19954;-68
2021/12/26 07:01:35;;;;;;;;;;;;;;;3.99;100.00;97502.66;4895331;29;19968;-68
2021/12/26 07:04:04;;;;;;;;;;;;;;;3.96;100.00;97508.16;4900435;29;19959;-75
2021/12/26 07:06:33;;;;;;;;;;;;;;;3.89;100.00;97508.03;4901103;29;19955;-67
2021/12/26 07:09:07;;;;;;;;;;;;;;;3.86;100.00;97522.63;4917579;29;19962;-67
2021/12/26 07:11:34;;;;;;;;;;;;;;;3.83;100.00;97515.06;4897653;29;19980;-66
2021/12/26 07:14:02;;;;;;;;;;;;;;;3.86;100.00;97519.88;4882781;29;19943;-67
2021/12/26 07:16:30;;;;;;;;;;;;;;;3.85;100.00;97515.50;4882068;29;20570;-67
2021/12/26 07:18:57;;;;;;;;;;;;;;;3.88;100.00;97526.63;4911603;29;19961;-67
2021/12/26 07:21:34;;;;;;;;;;;;;;;3.83;100.00;97532.47;4899861;29;19972;-67
2021/12/26 07:24:07;;;;;;;;;;;;;;;3.82;100.00;97530.06;4900478;29;19959;-67
2021/12/26 07:26:34;;;;;;;;;;;;;;;3.82;100.00;97530.06;4900903;29;19985;-67
2021/12/26 07:29:06;;;;;;;;;;;;;;;3.83;100.00;97534.44;4899342;29;20528;-68
2021/12/26 07:31:40;;;;;;;;;;;;;;;3.87;100.00;97540.81;4900720;29;19966;-68
2021/12/26 07:34:07;;;;;;;;;;;;;;;3.91;100.00;97544.44;4915259;29;19958;-67
2021/12/26 07:36:36;;;;;;;;;;;;;;;3.99;100.00;97552.44;4915689;29;19958;-67
2021/12/26 07:39:16;;;;;;;;;;;;;;;4.01;100.00;97541.00;4900686;29;19958;-68
2021/12/26 07:41:44;;;;;;;;;;;;;;;4.04;100.00;97536.69;4916657;29;19997;-67
2021/12/26 07:44:30;;;;;;;;;;;;;;;4.06;100.00;97539.91;4917145;29;20333;-67
2021/12/26 07:47:29;;;;;;;;;;;;;;;4.14;100.00;97542.38;4870049;29;19956;-68
2021/12/26 07:49:59;;;;;;;;;;;;;;;4.14;100.00;97555.41;4900029;29;20703;-68
2021/12/26 07:52:46;;;;;;;;;;;;;;;4.20;100.00;97551.97;4916637;29;19962;-68
2021/12/26 07:55:33;;;;;;;;;;;;;;;4.19;100.00;97555.09;4916059;29;19970;-68
2021/12/26 07:58:19;;;;;;;;;;;;;;;4.11;100.00;97551.44;4912707;29;19983;-68
2021/12/26 08:01:05;;;;;;;;;;;;;;;4.21;100.00;97549.97;4898179;29;19977;-68
2021/12/26 08:03:57;;;;;;;;;;;;;;;4.19;100.00;97555.09;4886009;29;19958;-68
2021/12/26 08:06:43;;;;;;;;;;;;;;;4.18;100.00;97562.59;4900573;29;19963;-69
2021/12/26 08:09:11;;;;;;;;;;;;;;;4.21;100.00;97561.03;4900252;29;20396;-68
2021/12/26 08:11:39;;;;;;;;;;;;;;;4.24;100.00;97561.09;4900081;29;19957;-68
2021/12/26 08:14:07;;;;;;;;;;;;;;;4.27;100.00;97563.13;4885062;29;19955;-68
2021/12/26 08:16:34;;;;;;;;;;;;;;;4.31;100.00;97561.19;4914684;29;20312;-67
2021/12/26 08:19:03;;;;;;;;;;;;;;;4.32;100.00;97562.00;4905883;29;19950;-67
2021/12/26 08:21:30;;;;;;;;;;;;;;;4.25;100.00;97568.25;4904615;29;19967;-67
2021/12/26 08:23:57;;;;;;;;;;;;;;;4.23;100.00;97578.09;4917796;29;19958;-67
2021/12/26 08:26:25;;;;;;;;;;;;;;;4.24;100.00;97579.69;4914632;29;19998;-68
2021/12/26 08:28:52;;;;;;;;;;;;;;;4.27;100.00;97567.88;4917252;29;19959;-67
2021/12/26 08:31:21;;;;;;;;;;;;;;;4.32;100.00;97584.94;4908102;29;19985;-67
2021/12/26 08:33:48;;;;;;;;;;;;;;;4.37;100.00;97583.81;4914694;29;19956;-68
2021/12/26 08:36:19;;;;;;;;;;;;;;;4.38;100.00;97580.66;4916650;29;19956;-67
2021/12/26 08:38:47;;;;;;;;;;;;;;;4.33;100.00;97583.75;4916335;29;19964;-67
2021/12/26 08:41:15;;;;;;;;;;;;;;;4.31;100.00;97582.53;4916064;29;19988;-67
2021/12/26 08:43:43;;;;;;;;;;;;;;;4.33;100.00;97582.97;4916241;29;19951;-68
2021/12/26 08:46:11;;;;;;;;;;;;;;;4.36;100.00;97590.53;4916206;29;19946;-70
2021/12/26 08:48:38;;;;;;;;;;;;;;;4.36;100.00;97591.31;4893129;29;19955;-67
2021/12/26 08:51:06;;;;;;;;;;;;;;;4.38;100.00;97588.16;4913850;29;19959;-67
2021/12/26 08:53:33;;;;;;;;;;;;;;;4.37;100.00;97595.69;4913663;29;20242;-67
2021/12/26 08:56:02;;;;;;;;;;;;;;;4.34;100.00;97588.13;4915329;29;19957;-67
2021/12/26 08:58:30;;;;;;;;;;;;;;;4.37;100.00;97592.94;4916189;29;19958;-67
2021/12/26 09:00:57;;;;;;;;;;;;;;;4.33;100.00;97596.78;4915036;29;19954;-67
2021/12/26 09:03:25;;;;;;;;;;;;;;;4.28;100.00;97597.16;4907451;29;19960;-67
2021/12/26 09:05:52;;;;;;;;;;;;;;;4.31;100.00;97599.94;4910770;29;19950;-66
2021/12/26 09:08:21;;;;;;;;;;;;;;;4.32;100.00;97609.84;4916936;29;20327;-66
2021/12/26 09:10:49;;;;;;;;;;;;;;;4.34;100.00;97598.41;4915680;29;19951;-67
2021/12/26 09:13:16;;;;;;;;;;;;;;;4.43;100.00;97596.16;4918278;29;19955;-67
2021/12/26 09:15:43;;;;;;;;;;;;;;;4.44;100.00;97595.00;4916840;29;19954;-68
2021/12/26 09:18:11;;;;;;;;;;;;;;;4.50;100.00;97594.28;4919210;29;19960;-68
2021/12/26 09:20:38;;;;;;;;;;;;;;;4.57;100.00;97599.13;4920357;29;19977;-67
2021/12/26 09:23:08;;;;;;;;;;;;;;;4.58;100.00;97590.44;4919186;29;19975;-68
2021/12/26 09:25:36;;;;;;;;;;;;;;;4.59;100.00;97591.25;4919260;29;19987;-68
2021/12/26 09:28:03;;;;;;;;;;;;;;;4.58;100.00;97597.94;4919377;29;20407;-67
2021/12/26 09:30:31;;;;;;;;;;;;;;;4.62;100.00;97602.34;4919783;29;19947;-67
2021/12/26 09:32:58;;;;;;;;;;;;;;;4.67;100.00;97603.97;4918969;29;19967;-67
2021/12/26 09:35:25;;;;;;;;;;;;;;;4.70;100.00;97599.66;4919121;29;19983;-68
2021/12/26 09:37:53;;;;;;;;;;;;;;;4.78;100.00;97599.38;4919586;29;19964;-67
2021/12/26 09:40:20;;;;;;;;;;;;;;;4.85;100.00;97598.66;4918977;29;19966;-67
2021/12/26 09:42:47;;;;;;;;;;;;;;;4.89;100.00;97600.31;4919076;29;20408;-67
2021/12/26 09:45:18;;;;;;;;;;;;;;;4.94;100.00;97602.75;4919474;29;19956;-67
2021/12/26 09:47:49;;;;;;;;;;;;;;;4.98;100.00;97605.56;4919520;29;19997;-67
2021/12/26 09:50:18;;;;;;;;;;;;;;;5.00;100.00;97605.97;4902954;29;19949;-67
2021/12/26 09:52:47;;;;;;;;;;;;;;;5.06;100.00;97607.25;4919581;29;19956;-67
2021/12/26 09:55:15;;;;;;;;;;;;;;;5.05;100.00;97608.41;4918775;29;20233;-67
2021/12/26 09:57:42;;;;;;;;;;;;;;;5.06;100.00;97601.72;4918083;29;19951;-67
2021/12/26 10:00:24;;;;;;;;;;;;;;;5.10;100.00;97600.56;4918014;29;20476;-67
2021/12/26 10:03:07;;;;;;;;;;;;;;;5.06;100.00;97598.94;4910504;29;19968;-67
2021/12/26 10:05:53;;;;;;;;;;;;;;;4.99;100.00;97601.63;4918266;29;20052;-67
2021/12/26 10:08:21;;;;;;;;;;;;;;;5.04;100.00;97601.25;4917785;29;19958;-67
2021/12/26 10:11:06;;;;;;;;;;;;;;;5.05;100.00;97592.59;4919150;29;19958;-67
2021/12/26 10:13:54;;;;;;;;;;;;;;;5.09;100.00;97587.06;4919099;29;19954;-67
2021/12/26 10:16:24;;;;;;;;;;;;;;;5.09;100.00;97587.88;4919169;29;19949;-67
2021/12/26 10:18:53;;;;;;;;;;;;;;;5.12;100.00;97584.34;4918533;29;19948;-67
2021/12/26 10:21:25;;;;;;;;;;;;;;;5.21;100.00;97578.50;4916709;29;20255;-67
2021/12/26 10:23:53;;;;;;;;;;;;;;;5.35;100.00;97575.88;4929864;29;19979;-68
2021/12/26 10:26:22;;;;;;;;;;;;;;;5.47;100.00;97575.59;4918544;29;19981;-67
2021/12/26 10:29:04;;;;;;;;;;;;;;;5.59;100.00;97580.88;4918387;29;19956;-68
2021/12/26 10:31:32;;;;;;;;;;;;;;;5.66;100.00;97571.81;4918436;29;19961;-67
2021/12/26 10:33:59;;;;;;;;;;;;;;;5.75;100.00;97566.72;4918427;29;19957;-67
2021/12/26 10:36:44;;;;;;;;;;;;;;;5.77;100.00;97569.94;4890827;29;21346;-67
2021/12/26 10:39:14;;;;;;;;;;;;;;;5.70;100.00;97573.44;4883830;29;20252;-67
2021/12/26 10:41:43;;;;;;;;;;;;;;;5.61;100.00;97574.94;4889295;29;19954;-67
2021/12/26 10:44:20;;;;;;;;;;;;;;;5.58;100.00;97578.47;4908588;29;19958;-67
2021/12/26 10:46:49;;;;;;;;;;;;;;;5.57;100.00;97574.09;4898840;29;19951;-67
2021/12/26 10:49:25;;;;;;;;;;;;;;;5.63;100.00;97576.13;4894654;29;19960;-67
2021/12/26 10:51:53;;;;;;;;;;;;;;;5.62;100.00;97566.25;4918160;29;19981;-67
2021/12/26 10:54:25;;;;;;;;;;;;;;;5.60;100.00;97567.81;4917465;29;19964;-67
2021/12/26 10:57:03;;;;;;;;;;;;;;;5.62;100.00;97566.25;4916171;29;19953;-67
2021/12/26 10:59:31;;;;;;;;;;;;;;;5.60;100.00;97568.56;4896425;29;19965;-67
2021/12/26 11:01:59;;;;;;;;;;;;;;;5.56;100.00;97561.41;4909182;29;19953;-67
2021/12/26 11:04:26;;;;;;;;;;;;;;;5.58;100.00;97559.03;4911312;29;19949;-67
2021/12/26 11:07:01;;;;;;;;;;;;;;;5.61;100.00;97559.09;4918342;29;19959;-67
2021/12/26 11:09:29;;;;;;;;;;;;;;;5.60;100.00;97551.94;4900957;29;19956;-67
2021/12/26 11:12:06;;;;;;;;;;;;;;;5.59;100.00;97558.69;4916836;29;19959;-67
2021/12/26 11:14:52;;;;;;;;;;;;;;;5.62;100.00;97552.38;4916806;29;19959;-67
2021/12/26 11:17:42;;;;;;;;;;;;;;;5.67;100.00;97560.31;4917667;29;19950;-67
2021/12/26 11:20:09;;;;;;;;;;;;;;;5.79;100.00;97548.16;4917724;29;19955;-67
2021/12/26 11:22:37;;;;;;;;;;;;;;;5.87;100.00;97547.03;4917294;29;20347;-67
2021/12/26 11:25:05;;;;;;;;;;;;;;;5.97;100.00;97548.31;4917949;29;19981;-67
2021/12/26 11:27:32;;;;;;;;;;;;;;;6.05;100.00;97545.19;4916911;29;19956;-67
2021/12/26 11:29:59;;;;;;;;;;;;;;;6.03;100.00;97544.78;4897873;29;20295;-67
2021/12/26 11:32:29;;;;;;;;;;;;;;;5.99;100.00;97543.16;4904260;29;20379;-67
2021/12/26 11:34:57;;;;;;;;;;;;;;;6.18;100.00;97548.44;4916677;29;19959;-67
2021/12/26 11:37:24;;;;;;;;;;;;;;;6.25;100.00;97540.16;4917390;29;19957;-67
2021/12/26 11:40:11;;;;;;;;;;;;;;;6.30;100.00;97542.56;4916847;29;19950;-67
2021/12/26 11:43:13;;;;;;;;;;;;;;;6.24;100.00;97541.31;4917151;29;19976;-67
2021/12/26 11:46:17;;;;;;;;;;;;;;;6.22;100.00;97547.28;4913564;29;19957;-67
2021/12/26 11:49:26;;;;;;;;;;;;;;;6.24;100.00;97538.56;4868692;29;20259;-67
2021/12/26 11:52:32;;;;;;;;;;;;;;;6.20;100.00;97534.97;4900731;29;19983;-67
2021/12/26 11:55:46;;;;;;;;;;;;;;;6.09;100.00;97534.13;4870585;29;19960;-67
2021/12/26 11:58:13;;;;;;;;;;;;;;;6.01;100.00;97533.28;4900766;29;19958;-67
2021/12/26 12:00:47;;;;;;;;;;;;;;;5.97;100.00;97541.56;4914213;29;19962;-67
2021/12/26 12:03:21;;;;;;;;;;;;;;;5.93;100.00;97537.97;4905912;29;19969;-67
2021/12/26 12:05:49;;;;;;;;;;;;;;;5.91;100.00;97540.34;4916728;29;19959;-67
2021/12/26 12:08:25;;;;;;;;;;;;;;;5.94;100.00;97539.56;4916049;29;19953;-67
2021/12/26 12:10:52;;;;;;;;;;;;;;;5.94;100.00;97547.09;4916808;29;19961;-67
2021/12/26 12:13:22;;;;;;;;;;;;;;;5.93;100.00;97549.09;4917464;29;19950;-67
2021/12/26 12:15:54;;;;;;;;;;;;;;;5.93;100.00;97548.28;4916325;29;20255;-67
2021/12/26 12:18:21;;;;;;;;;;;;;;;5.89;100.00;97548.25;4916290;29;19955;-67
2021/12/26 12:21:07;;;;;;;;;;;;;;;5.85;100.00;97543.84;4916057;29;19952;-68
2021/12/26 12:23:35;;;;;;;;;;;;;;;5.84;100.00;97536.69;4899542;29;19970;-67
2021/12/26 12:26:03;;;;;;;;;;;;;;;5.85;100.00;97543.84;4916827;29;19985;-67
2021/12/26 12:28:32;;;;;;;;;;;;;;;5.83;100.00;97537.88;4916118;29;19957;-67
2021/12/26 12:31:09;;;;;;;;;;;;;;;5.82;100.00;97537.06;4916903;29;20625;-67
2021/12/26 12:33:37;;;;;;;;;;;;;;;5.80;100.00;97533.88;4915783;29;19958;-67
2021/12/26 12:36:04;;;;;;;;;;;;;;;5.80;100.00;97542.19;4897867;29;20358;-67
2021/12/26 12:38:39;;;;;;;;;;;;;;;5.80;100.00;97547.75;4897890;29;19955;-67
2021/12/26 12:41:30;;;;;;;;;;;;;;;5.77;100.00;97545.75;4898876;29;19955;-67
2021/12/26 12:43:59;;;;;;;;;;;;;;;5.72;100.00;97545.31;4913937;29;19973;-67
2021/12/26 12:46:26;;;;;;;;;;;;;;;5.62;100.00;97544.06;4913788;29;19955;-67
2021/12/26 12:49:00;;;;;;;;;;;;;;;5.63;100.00;97542.06;4903775;29;20332;-67
2021/12/26 12:51:27;;;;;;;;;;;;;;;5.66;100.00;97527.44;4920167;29;19957;-67
2021/12/26 12:53:55;;;;;;;;;;;;;;;5.60;100.00;97526.22;4919585;29;19988;-67
2021/12/26 12:56:40;;;;;;;;;;;;;;;5.64;100.00;97524.25;4919613;29;19961;-67
2021/12/26 12:59:14;;;;;;;;;;;;;;;5.73;100.00;97525.50;4919628;29;19955;-67
2021/12/26 13:01:47;;;;;;;;;;;;;;;5.72;100.00;97525.91;4918362;29;19968;-67
2021/12/26 13:04:15;;;;;;;;;;;;;;;5.73;100.00;97522.72;4901206;29;19974;-67
2021/12/26 13:06:49;;;;;;;;;;;;;;;5.74;100.00;97524.34;4911662;29;19957;-67
2021/12/26 13:09:17;;;;;;;;;;;;;;;5.75;100.00;97525.13;4915145;29;19955;-67
2021/12/26 13:11:44;;;;;;;;;;;;;;;5.80;100.00;97513.66;4919575;29;19987;-67
2021/12/26 13:14:12;;;;;;;;;;;;;;;5.79;100.00;97521.22;4915140;29;19953;-67
2021/12/26 13:16:39;;;;;;;;;;;;;;;5.78;100.00;97514.06;4901444;29;19954;-67
2021/12/26 13:19:08;;;;;;;;;;;;;;;5.77;100.00;97518.00;4900787;29;19955;-67
2021/12/26 13:21:37;;;;;;;;;;;;;;;5.76;100.00;97515.63;4903591;29;19954;-67
2021/12/26 13:24:06;;;;;;;;;;;;;;;5.78;100.00;97516.84;4919277;29;20469;-67
2021/12/26 13:26:40;;;;;;;;;;;;;;;5.74;100.00;97521.56;4918847;29;19981;-67
2021/12/26 13:29:08;;;;;;;;;;;;;;;5.73;100.00;97514.41;4920157;29;19956;-67
2021/12/26 13:31:35;;;;;;;;;;;;;;;5.71;100.00;97514.00;4917103;29;19952;-68
2021/12/26 13:34:02;;;;;;;;;;;;;;;5.73;100.00;97521.94;4913924;29;19955;-68
2021/12/26 13:36:32;;;;;;;;;;;;;;;5.76;100.00;97516.44;4916402;29;19951;-68
2021/12/26 13:39:00;;;;;;;;;;;;;;;5.77;100.00;97512.44;4917918;29;19954;-68
2021/12/26 13:41:28;;;;;;;;;;;;;;;5.80;100.00;97514.47;4918695;29;19954;-68
2021/12/26 13:43:59;;;;;;;;;;;;;;;5.80;100.00;97516.44;4910500;29;19973;-68
2021/12/26 13:46:32;;;;;;;;;;;;;;;5.76;100.00;97518.41;4916104;29;19975;-68
2021/12/26 13:48:59;;;;;;;;;;;;;;;5.77;100.00;97520.78;4915889;29;19979;-67
2021/12/26 13:51:31;;;;;;;;;;;;;;;5.78;100.00;97511.28;4915849;29;20331;-67
2021/12/26 13:54:06;;;;;;;;;;;;;;;5.80;100.00;97510.88;4918521;29;19957;-67
2021/12/26 13:56:43;;;;;;;;;;;;;;;5.77;100.00;97515.22;4918503;29;20245;-66
2021/12/26 13:59:25;;;;;;;;;;;;;;;5.78;100.00;97518.81;4918586;29;19981;-66
2021/12/26 14:01:53;;;;;;;;;;;;;;;5.73;100.00;97513.63;4917645;29;19954;-67
2021/12/26 14:04:24;;;;;;;;;;;;;;;5.67;100.00;97518.72;4915234;29;19979;-67
2021/12/26 14:06:51;;;;;;;;;;;;;;;5.68;100.00;97516.75;4917298;29;19960;-66
2021/12/26 14:09:19;;;;;;;;;;;;;;;5.63;100.00;97526.22;4917085;29;20339;-67
2021/12/26 14:11:46;;;;;;;;;;;;;;;5.63;100.00;97517.09;4918246;29;19955;-67
2021/12/26 14:14:20;;;;;;;;;;;;;;;5.61;100.00;97517.50;4916208;29;19958;-67
2021/12/26 14:16:48;;;;;;;;;;;;;;;5.60;100.00;97513.13;4917164;29;19951;-68
2021/12/26 14:19:16;;;;;;;;;;;;;;;5.61;100.00;97514.72;4915468;29;19954;-68
2021/12/26 14:21:46;;;;;;;;;;;;;;;5.57;100.00;97516.69;4905572;29;19956;-68
2021/12/26 14:24:21;;;;;;;;;;;;;;;5.54;100.00;97530.50;4915349;29;19978;-67
2021/12/26 14:26:50;;;;;;;;;;;;;;;5.58;100.00;97537.66;4910908;29;20634;-67
2021/12/26 14:29:20;;;;;;;;;;;;;;;5.55;100.00;97543.97;4907612;29;19950;-67
2021/12/26 14:31:50;;;;;;;;;;;;;;;5.50;100.00;97541.56;4883091;29;20036;-67
2021/12/26 14:34:17;;;;;;;;;;;;;;;5.40;100.00;97545.06;4903493;29;19980;-67
2021/12/26 14:36:49;;;;;;;;;;;;;;;5.32;100.00;97551.69;4915256;29;19958;-67
2021/12/26 14:39:24;;;;;;;;;;;;;;;5.26;100.00;97553.22;4917380;29;19957;-67
2021/12/26 14:41:53;;;;;;;;;;;;;;;5.27;100.00;97560.34;4918226;29;19957;-67
2021/12/26 14:44:23;;;;;;;;;;;;;;;5.32;100.00;97558.03;4918611;29;19971;-67
2021/12/26 14:46:52;;;;;;;;;;;;;;;5.34;100.00;97557.66;4915437;29;19961;-67
2021/12/26 14:49:20;;;;;;;;;;;;;;;5.35;100.00;97564.00;4917056;29;20046;-67
2021/12/26 14:51:59;;;;;;;;;;;;;;;5.35;100.00;97564.81;4908969;29;19947;-67
2021/12/26 14:54:43;;;;;;;;;;;;;;;5.35;100.00;97569.53;4917388;29;19962;-67
2021/12/26 14:57:12;;;;;;;;;;;;;;;5.36;100.00;97565.56;4916989;29;19956;-67
2021/12/26 14:59:40;;;;;;;;;;;;;;;5.37;100.00;97565.22;4917862;29;19953;-67
2021/12/26 15:02:07;;;;;;;;;;;;;;;5.37;100.00;97567.97;4917942;29;19947;-67
2021/12/26 15:04:35;;;;;;;;;;;;;;;5.42;100.00;97566.84;4917075;29;19976;-68
2021/12/26 15:07:07;;;;;;;;;;;;;;;5.45;100.00;97574.41;4911049;29;19961;-67
2021/12/26 15:09:38;;;;;;;;;;;;;;;5.43;100.00;97568.44;4911044;29;19953;-67
2021/12/26 15:12:25;;;;;;;;;;;;;;;5.42;100.00;97570.41;4900763;29;19955;-67
2021/12/26 15:15:06;;;;;;;;;;;;;;;5.39;100.00;97568.41;4917693;29;19954;-67
2021/12/26 15:17:34;;;;;;;;;;;;;;;5.40;100.00;97570.00;4914859;29;20351;-67
2021/12/26 15:20:15;;;;;;;;;;;;;;;5.39;100.00;97564.81;4913686;29;19955;-67
2021/12/26 15:22:45;;;;;;;;;;;;;;;5.38;100.00;97568.78;4913719;29;19952;-67
2021/12/26 15:25:13;;;;;;;;;;;;;;;5.36;100.00;97558.06;4914024;29;19972;-67
2021/12/26 15:27:40;;;;;;;;;;;;;;;5.40;100.00;97561.69;4917503;29;19955;-67
2021/12/26 15:30:17;;;;;;;;;;;;;;;5.36;100.00;97560.84;4916055;29;19953;-67
2021/12/26 15:32:46;;;;;;;;;;;;;;;5.30;100.00;97571.50;4913209;29;19958;-67
2021/12/26 15:35:14;;;;;;;;;;;;;;;5.27;100.00;97575.03;4905405;29;19953;-66
2021/12/26 15:37:41;;;;;;;;;;;;;;;5.24;100.00;97577.75;4916231;29;19953;-67
2021/12/26 15:40:11;;;;;;;;;;;;;;;5.17;100.00;97581.25;4916657;29;19946;-67
2021/12/26 15:42:38;;;;;;;;;;;;;;;5.21;100.00;97579.31;4915007;29;19955;-67
2021/12/26 15:45:05;;;;;;;;;;;;;;;5.20;100.00;97582.47;4914597;29;19968;-66
2021/12/26 15:47:34;;;;;;;;;;;;;;;5.24;100.00;97586.06;4914265;29;19963;-67
2021/12/26 15:50:03;;;;;;;;;;;;;;;5.23;100.00;97588.03;4917219;29;19954;-67
2021/12/26 15:52:30;;;;;;;;;;;;;;;5.26;100.00;97592.00;4915255;29;19967;-67
2021/12/26 15:54:57;;;;;;;;;;;;;;;5.27;100.00;97586.09;4902512;29;19954;-67
2021/12/26 15:57:25;;;;;;;;;;;;;;;5.27;100.00;97591.66;4915537;29;19948;-67
2021/12/26 15:59:52;;;;;;;;;;;;;;;5.26;100.00;97592.00;4902208;29;20335;-67
2021/12/26 16:02:19;;;;;;;;;;;;;;;5.24;100.00;97592.41;4916657;29;19957;-67
2021/12/26 16:04:47;;;;;;;;;;;;;;;5.23;100.00;97592.78;4915898;29;19970;-67
2021/12/26 16:07:14;;;;;;;;;;;;;;;5.25;100.00;97582.94;4910114;29;19958;-67
2021/12/26 16:09:41;;;;;;;;;;;;;;;5.22;100.00;97592.00;4907991;29;19963;-67
2021/12/26 16:12:09;;;;;;;;;;;;;;;5.23;100.00;97592.78;4916509;29;19953;-67
2021/12/26 16:14:36;;;;;;;;;;;;;;;5.20;100.00;97588.00;4910055;29;19956;-67
2021/12/26 16:17:04;;;;;;;;;;;;;;;5.20;100.00;97582.47;4919349;29;19952;-67
2021/12/26 16:19:31;;;;;;;;;;;;;;;5.21;100.00;97584.03;4919700;29;19948;-67
2021/12/26 16:21:58;;;;;;;;;;;;;;;5.16;100.00;97585.19;4920761;29;20347;-67
2021/12/26 16:24:26;;;;;;;;;;;;;;;5.11;100.00;97582.75;4910123;29;19982;-67
2021/12/26 16:26:53;;;;;;;;;;;;;;;5.08;100.00;97586.31;4917295;29;20240;-67
2021/12/26 16:29:20;;;;;;;;;;;;;;;5.03;100.00;97594.94;4903917;29;20309;-67
2021/12/26 16:31:48;;;;;;;;;;;;;;;5.07;100.00;97601.31;4911422;29;19956;-67
2021/12/26 16:34:15;;;;;;;;;;;;;;;5.14;100.00;97600.59;4913246;29;19975;-67
2021/12/26 16:36:43;;;;;;;;;;;;;;;5.13;100.00;97587.94;4896638;29;19956;-67
2021/12/26 16:39:11;;;;;;;;;;;;;;;5.16;100.00;97592.72;4919905;29;19950;-67
2021/12/26 16:41:38;;;;;;;;;;;;;;;5.19;100.00;97609.38;4917694;29;19954;-67
2021/12/26 16:44:06;;;;;;;;;;;;;;;5.19;100.00;97608.56;4920126;29;20221;-67
2021/12/26 16:46:33;;;;;;;;;;;;;;;5.19;100.00;97603.84;4918851;29;19975;-67
2021/12/26 16:49:03;;;;;;;;;;;;;;;5.23;100.00;97601.88;4905243;29;19966;-67
2021/12/26 16:51:30;;;;;;;;;;;;;;;5.27;100.00;97605.50;4907249;29;19969;-67
2021/12/26 16:53:58;;;;;;;;;;;;;;;5.29;100.00;97594.03;4918268;29;19972;-67
2021/12/26 16:56:25;;;;;;;;;;;;;;;5.32;100.00;97596.06;4915158;29;19957;-67
2021/12/26 16:58:53;;;;;;;;;;;;;;;5.28;100.00;97598.00;4908539;29;19958;-67
2021/12/26 17:01:20;;;;;;;;;;;;;;;5.28;100.00;97600.78;4914361;29;19954;-67
2021/12/26 17:03:47;;;;;;;;;;;;;;;5.24;100.00;97597.94;4909689;29;19956;-67
2021/12/26 17:06:16;;;;;;;;;;;;;;;5.24;100.00;97605.47;4914711;29;20260;-67
2021/12/26 17:08:45;;;;;;;;;;;;;;;5.26;100.00;97608.66;4914015;29;19961;-67
2021/12/26 17:11:12;;;;;;;;;;;;;;;5.23;100.00;97603.88;4919343;29;19966;-67
2021/12/26 17:13:40;;;;;;;;;;;;;;;5.23;100.00;97604.66;4920002;29;20334;-67
2021/12/26 17:16:08;;;;;;;;;;;;;;;5.22;100.00;97605.03;4919079;29;20308;-67
2021/12/26 17:18:35;;;;;;;;;;;;;;;5.20;100.00;97608.22;4918862;29;19978;-67
2021/12/26 17:21:02;;;;;;;;;;;;;;;5.23;100.00;97609.44;4916150;29;19965;-67
2021/12/26 17:23:30;;;;;;;;;;;;;;;5.29;100.00;97613.44;4918094;29;19962;-75
2021/12/26 17:25:57;;;;;;;;;;;;;;;5.31;100.00;97611.06;4916091;29;19983;-68
2021/12/26 17:28:25;;;;;;;;;;;;;;;5.28;100.00;97617.41;4919864;29;20332;-67
2021/12/26 17:30:52;;;;;;;;;;;;;;;5.23;100.00;97620.50;4917547;29;20598;-68
2021/12/26 17:33:20;;;;;;;;;;;;;;;5.18;100.00;97627.16;4916948;29;19955;-67
2021/12/26 17:35:47;;;;;;;;;;;;;;;5.18;100.00;97634.72;4913947;29;20392;-67
2021/12/26 17:38:14;;;;;;;;;;;;;;;5.24;100.00;97627.63;4916997;29;19946;-67
2021/12/26 17:40:42;;;;;;;;;;;;;;;5.28;100.00;97623.72;4919268;29;19951;-68
2021/12/26 17:43:09;;;;;;;;;;;;;;;5.28;100.00;97634.03;4917368;29;20529;-68
2021/12/26 17:45:37;;;;;;;;;;;;;;;5.27;100.00;97635.19;4919169;29;19966;-68
2021/12/26 17:48:04;;;;;;;;;;;;;;;5.26;100.00;97641.91;4915921;29;19953;-68
2021/12/26 17:50:32;;;;;;;;;;;;;;;5.30;100.00;97646.34;4918232;29;20299;-68
2021/12/26 17:53:04;;;;;;;;;;;;;;;5.31;100.00;97638.78;4918437;29;19965;-68
2021/12/26 17:55:31;;;;;;;;;;;;;;;5.30;100.00;97651.06;4918194;29;19955;-68
2021/12/26 17:57:58;;;;;;;;;;;;;;;5.31;100.00;97649.88;4915775;29;19958;-68
2021/12/26 18:00:26;;;;;;;;;;;;;;;5.35;100.00;97647.97;4916491;29;20053;-68
2021/12/26 18:02:53;;;;;;;;;;;;;;;5.36;100.00;97645.97;4915780;29;19959;-67
2021/12/26 18:05:21;;;;;;;;;;;;;;;5.39;100.00;97634.13;4917164;29;20354;-67
2021/12/26 18:07:49;;;;;;;;;;;;;;;5.38;100.00;97644.41;4917521;29;19959;-67
2021/12/26 18:10:17;;;;;;;;;;;;;;;5.33;100.00;97640.00;4917302;29;20250;-68
2021/12/26 18:12:45;;;;;;;;;;;;;;;5.35;100.00;97641.63;4915157;29;19992;-67
2021/12/26 18:15:15;;;;;;;;;;;;;;;5.33;100.00;97636.44;4899562;29;19957;-67
2021/12/26 18:17:42;;;;;;;;;;;;;;;5.32;100.00;97634.84;4915315;29;20269;-68
2021/12/26 18:20:12;;;;;;;;;;;;;;;5.29;100.00;97641.97;4917660;29;20384;-68
2021/12/26 18:22:39;;;;;;;;;;;;;;;5.28;100.00;97645.91;4916732;29;19946;-68
2021/12/26 18:25:06;;;;;;;;;;;;;;;5.29;100.00;97638.38;4916381;29;19973;-68
2021/12/26 18:27:34;;;;;;;;;;;;;;;5.28;100.00;97636.81;4917816;29;19962;-68
2021/12/26 18:30:06;;;;;;;;;;;;;;;5.29;100.00;97630.88;4916091;29;19958;-67
2021/12/26 18:32:33;;;;;;;;;;;;;;;5.30;100.00;97637.22;4916278;29;19952;-67
2021/12/26 18:35:01;;;;;;;;;;;;;;;5.27;100.00;97632.44;4915131;29;19962;-67
2021/12/26 18:37:28;;;;;;;;;;;;;;;5.25;100.00;97626.47;4915563;29;19962;-67
2021/12/26 18:39:56;;;;;;;;;;;;;;;5.19;100.00;97626.00;4915504;29;19961;-68
2021/12/26 18:42:23;;;;;;;;;;;;;;;5.21;100.00;97628.38;4912736;29;19967;-67
2021/12/26 18:44:50;;;;;;;;;;;;;;;5.12;100.00;97625.13;4910931;29;19953;-67
2021/12/26 18:47:18;;;;;;;;;;;;;;;5.13;100.00;97638.63;4917566;29;20287;-65
2021/12/26 18:49:47;;;;;;;;;;;;;;;5.12;100.00;97633.44;4907712;29;19961;-68
2021/12/26 18:52:14;;;;;;;;;;;;;;;5.11;100.00;97640.16;4914698;29;20342;-68
2021/12/26 18:54:42;;;;;;;;;;;;;;;5.12;100.00;97644.53;4901375;29;19962;-69
2021/12/26 18:57:09;;;;;;;;;;;;;;;5.11;100.00;97651.25;4915569;29;19958;-68
2021/12/26 18:59:37;;;;;;;;;;;;;;;5.09;100.00;97654.38;4915266;29;19970;-68
2021/12/26 19:02:04;;;;;;;;;;;;;;;5.06;100.00;97660.66;4913348;29;20214;-68
2021/12/26 19:04:32;;;;;;;;;;;;;;;5.10;100.00;97666.28;4912078;29;19948;-68
2021/12/26 19:07:02;;;;;;;;;;;;;;;5.11;100.00;97662.34;4887378;29;19970;-68
2021/12/26 19:09:30;;;;;;;;;;;;;;;5.14;100.00;97653.25;4909369;29;19955;-68
2021/12/26 19:11:57;;;;;;;;;;;;;;;5.14;100.00;97661.56;4911603;29;19957;-67
2021/12/26 19:14:25;;;;;;;;;;;;;;;5.12;100.00;97663.91;4902358;29;20227;-68
2021/12/26 19:16:52;;;;;;;;;;;;;;;5.12;100.00;97664.72;4912418;29;20240;-68
2021/12/26 19:19:19;;;;;;;;;;;;;;;5.13;100.00;97671.06;4911382;29;19951;-68
2021/12/26 19:21:47;;;;;;;;;;;;;;;5.11;100.00;97674.19;4909576;29;20019;-68
2021/12/26 19:24:15;;;;;;;;;;;;;;;5.09;100.00;97678.53;4903626;29;19952;-68
2021/12/26 19:26:42;;;;;;;;;;;;;;;5.06;100.00;97687.59;4914999;29;19977;-68
2021/12/26 19:29:10;;;;;;;;;;;;;;;5.04;100.00;97685.19;4904685;29;19980;-68
2021/12/26 19:31:39;;;;;;;;;;;;;;;5.00;100.00;97689.91;4907668;29;19955;-68
2021/12/26 19:34:07;;;;;;;;;;;;;;;4.98;100.00;97689.50;4911353;29;19966;-68